<?xml version="1.0" encoding="UTF-8" standalone="no" ?>
<gpx xmlns="http://www.topografix.com/GPX/1/1" xmlns:xsi="http://www.w3.org/2001/XMLSchema-instance" xsi:schemaLocation="http://www.topografix.com/GPX/1/1 http://www.topografix.com/GPX/1/1/gpx.xsd" version="1.1" creator="VisuGPX - https://www.visugpx.com">
  <metadata>
    <name>jour 2_2_66km_3_coupes</name>
  </metadata>
  <trk>
    <name><![CDATA[2eme  journée VTT 4 pays variante 66km - 3 coupes-20933653]]></name>
    <extensions>
      <line xmlns="http://www.topografix.com/GPX/gpx_style/0/2">
        <color>ff6600</color>
        <width>4</width>
      </line>
    </extensions>
    <trkseg>
      <trkpt lat="50.75638" lon="5.93835">
        <ele>123</ele>
        <time>2025-04-20T12:48:29Z</time>
      </trkpt>
      <trkpt lat="50.75578" lon="5.93886">
        <ele>125</ele>
        <time>2025-04-20T12:48:45Z</time>
      </trkpt>
      <trkpt lat="50.7554" lon="5.93901">
        <ele>126</ele>
        <time>2025-04-20T12:48:54Z</time>
      </trkpt>
      <trkpt lat="50.75502" lon="5.93889">
        <ele>126</ele>
        <time>2025-04-20T12:49:03Z</time>
      </trkpt>
      <trkpt lat="50.75445" lon="5.939">
        <ele>125</ele>
        <time>2025-04-20T12:49:17Z</time>
      </trkpt>
      <trkpt lat="50.75387" lon="5.93984">
        <ele>125</ele>
        <time>2025-04-20T12:49:35Z</time>
      </trkpt>
      <trkpt lat="50.75335" lon="5.94125">
        <ele>133</ele>
        <time>2025-04-20T12:49:59Z</time>
      </trkpt>
      <trkpt lat="50.75227" lon="5.94272">
        <ele>142</ele>
        <time>2025-04-20T12:50:32Z</time>
      </trkpt>
      <trkpt lat="50.75217" lon="5.9437">
        <ele>147</ele>
        <time>2025-04-20T12:50:47Z</time>
      </trkpt>
      <trkpt lat="50.75173" lon="5.9455">
        <ele>153</ele>
        <time>2025-04-20T12:51:15Z</time>
      </trkpt>
      <trkpt lat="50.75136" lon="5.9479">
        <ele>160</ele>
        <time>2025-04-20T12:51:52Z</time>
      </trkpt>
      <trkpt lat="50.75138" lon="5.94848">
        <ele>160</ele>
        <time>2025-04-20T12:52:01Z</time>
      </trkpt>
      <trkpt lat="50.75166" lon="5.94989">
        <ele>166</ele>
        <time>2025-04-20T12:52:22Z</time>
      </trkpt>
      <trkpt lat="50.75211" lon="5.95194">
        <ele>171</ele>
        <time>2025-04-20T12:52:54Z</time>
      </trkpt>
      <trkpt lat="50.75231" lon="5.95352">
        <ele>173</ele>
        <time>2025-04-20T12:53:18Z</time>
      </trkpt>
      <trkpt lat="50.75246" lon="5.95531">
        <ele>173</ele>
        <time>2025-04-20T12:53:45Z</time>
      </trkpt>
      <trkpt lat="50.75322" lon="5.95887">
        <ele>177</ele>
        <time>2025-04-20T12:54:40Z</time>
      </trkpt>
      <trkpt lat="50.75347" lon="5.96134">
        <ele>181</ele>
        <time>2025-04-20T12:55:17Z</time>
      </trkpt>
      <trkpt lat="50.75394" lon="5.96407">
        <ele>190</ele>
        <time>2025-04-20T12:55:59Z</time>
      </trkpt>
      <trkpt lat="50.75397" lon="5.96852">
        <ele>204</ele>
        <time>2025-04-20T12:57:05Z</time>
      </trkpt>
      <trkpt lat="50.75194" lon="5.9737">
        <ele>205</ele>
        <time>2025-04-20T12:58:35Z</time>
      </trkpt>
      <trkpt lat="50.75127" lon="5.97418">
        <ele>200</ele>
        <time>2025-04-20T12:58:52Z</time>
      </trkpt>
      <trkpt lat="50.75043" lon="5.9742">
        <ele>193</ele>
        <time>2025-04-20T12:59:12Z</time>
      </trkpt>
      <trkpt lat="50.74943" lon="5.97558">
        <ele>185</ele>
        <time>2025-04-20T12:59:43Z</time>
      </trkpt>
      <trkpt lat="50.74865" lon="5.97674">
        <ele>185</ele>
        <time>2025-04-20T13:00:08Z</time>
      </trkpt>
      <trkpt lat="50.74868" lon="5.97787">
        <ele>190</ele>
        <time>2025-04-20T13:00:24Z</time>
      </trkpt>
      <trkpt lat="50.74921" lon="5.97955">
        <ele>197</ele>
        <time>2025-04-20T13:00:52Z</time>
      </trkpt>
      <trkpt lat="50.74919" lon="5.98024">
        <ele>197</ele>
        <time>2025-04-20T13:01:02Z</time>
      </trkpt>
      <trkpt lat="50.74751" lon="5.98717">
        <ele>212</ele>
        <time>2025-04-20T13:02:52Z</time>
      </trkpt>
      <trkpt lat="50.74666" lon="5.99046">
        <ele>218</ele>
        <time>2025-04-20T13:03:45Z</time>
      </trkpt>
      <trkpt lat="50.74689" lon="5.99124">
        <ele>221</ele>
        <time>2025-04-20T13:03:57Z</time>
      </trkpt>
      <trkpt lat="50.74681" lon="5.99179">
        <ele>221</ele>
        <time>2025-04-20T13:04:06Z</time>
      </trkpt>
      <trkpt lat="50.74658" lon="5.99242">
        <ele>217</ele>
        <time>2025-04-20T13:04:16Z</time>
      </trkpt>
      <trkpt lat="50.74724" lon="5.99357">
        <ele>219</ele>
        <time>2025-04-20T13:04:39Z</time>
      </trkpt>
      <trkpt lat="50.74773" lon="5.99471">
        <ele>219</ele>
        <time>2025-04-20T13:05:00Z</time>
      </trkpt>
      <trkpt lat="50.74812" lon="5.99634">
        <ele>220</ele>
        <time>2025-04-20T13:05:25Z</time>
      </trkpt>
      <trkpt lat="50.74841" lon="5.99874">
        <ele>221</ele>
        <time>2025-04-20T13:06:02Z</time>
      </trkpt>
      <trkpt lat="50.74866" lon="5.99997">
        <ele>222</ele>
        <time>2025-04-20T13:06:21Z</time>
      </trkpt>
      <trkpt lat="50.74929" lon="6.0021">
        <ele>230</ele>
        <time>2025-04-20T13:06:55Z</time>
      </trkpt>
      <trkpt lat="50.74926" lon="6.00222">
        <ele>229</ele>
        <time>2025-04-20T13:06:57Z</time>
      </trkpt>
      <trkpt lat="50.74983" lon="6.0046">
        <ele>231</ele>
        <time>2025-04-20T13:07:35Z</time>
      </trkpt>
      <trkpt lat="50.75008" lon="6.00469">
        <ele>233</ele>
        <time>2025-04-20T13:07:41Z</time>
      </trkpt>
      <trkpt lat="50.75036" lon="6.00642">
        <ele>234</ele>
        <time>2025-04-20T13:08:07Z</time>
      </trkpt>
      <trkpt lat="50.7505" lon="6.00773">
        <ele>235</ele>
        <time>2025-04-20T13:08:27Z</time>
      </trkpt>
      <trkpt lat="50.75049" lon="6.00901">
        <ele>235</ele>
        <time>2025-04-20T13:08:46Z</time>
      </trkpt>
      <trkpt lat="50.75039" lon="6.00975">
        <ele>236</ele>
        <time>2025-04-20T13:08:57Z</time>
      </trkpt>
      <trkpt lat="50.75031" lon="6.01086">
        <ele>238</ele>
        <time>2025-04-20T13:09:14Z</time>
      </trkpt>
      <trkpt lat="50.75032" lon="6.01135">
        <ele>241</ele>
        <time>2025-04-20T13:09:21Z</time>
      </trkpt>
      <trkpt lat="50.75046" lon="6.01143">
        <ele>241</ele>
        <time>2025-04-20T13:09:24Z</time>
      </trkpt>
      <trkpt lat="50.7506" lon="6.01142">
        <ele>241</ele>
        <time>2025-04-20T13:09:28Z</time>
      </trkpt>
      <trkpt lat="50.75089" lon="6.01358">
        <ele>253</ele>
        <time>2025-04-20T13:10:00Z</time>
      </trkpt>
      <trkpt lat="50.75097" lon="6.01398">
        <ele>255</ele>
        <time>2025-04-20T13:10:06Z</time>
      </trkpt>
      <trkpt lat="50.75225" lon="6.01683">
        <ele>270</ele>
        <time>2025-04-20T13:10:58Z</time>
      </trkpt>
      <trkpt lat="50.75269" lon="6.01766">
        <ele>278</ele>
        <time>2025-04-20T13:11:14Z</time>
      </trkpt>
      <trkpt lat="50.75274" lon="6.01783">
        <ele>281</ele>
        <time>2025-04-20T13:11:17Z</time>
      </trkpt>
      <trkpt lat="50.75275" lon="6.0181">
        <ele>283</ele>
        <time>2025-04-20T13:11:21Z</time>
      </trkpt>
      <trkpt lat="50.75269" lon="6.01829">
        <ele>284</ele>
        <time>2025-04-20T13:11:24Z</time>
      </trkpt>
      <trkpt lat="50.75213" lon="6.01897">
        <ele>290</ele>
        <time>2025-04-20T13:11:40Z</time>
      </trkpt>
      <trkpt lat="50.75207" lon="6.01902">
        <ele>290</ele>
        <time>2025-04-20T13:11:42Z</time>
      </trkpt>
      <trkpt lat="50.75189" lon="6.019">
        <ele>289</ele>
        <time>2025-04-20T13:11:46Z</time>
      </trkpt>
      <trkpt lat="50.75162" lon="6.01881">
        <ele>286</ele>
        <time>2025-04-20T13:11:53Z</time>
      </trkpt>
      <trkpt lat="50.75156" lon="6.01886">
        <ele>287</ele>
        <time>2025-04-20T13:11:55Z</time>
      </trkpt>
      <trkpt lat="50.75155" lon="6.01905">
        <ele>289</ele>
        <time>2025-04-20T13:11:57Z</time>
      </trkpt>
      <trkpt lat="50.75165" lon="6.01918">
        <ele>290</ele>
        <time>2025-04-20T13:12:00Z</time>
      </trkpt>
      <trkpt lat="50.75232" lon="6.01974">
        <ele>302</ele>
        <time>2025-04-20T13:12:18Z</time>
      </trkpt>
      <trkpt lat="50.75244" lon="6.0198">
        <ele>303</ele>
        <time>2025-04-20T13:12:21Z</time>
      </trkpt>
      <trkpt lat="50.75272" lon="6.01974">
        <ele>305</ele>
        <time>2025-04-20T13:12:28Z</time>
      </trkpt>
      <trkpt lat="50.75288" lon="6.01957">
        <ele>305</ele>
        <time>2025-04-20T13:12:32Z</time>
      </trkpt>
      <trkpt lat="50.75362" lon="6.01837">
        <ele>306</ele>
        <time>2025-04-20T13:12:57Z</time>
      </trkpt>
      <trkpt lat="50.75376" lon="6.01797">
        <ele>308</ele>
        <time>2025-04-20T13:13:04Z</time>
      </trkpt>
      <trkpt lat="50.75382" lon="6.01749">
        <ele>307</ele>
        <time>2025-04-20T13:13:11Z</time>
      </trkpt>
      <trkpt lat="50.7539" lon="6.01739">
        <ele>309</ele>
        <time>2025-04-20T13:13:13Z</time>
      </trkpt>
      <trkpt lat="50.75394" lon="6.01742">
        <ele>310</ele>
        <time>2025-04-20T13:13:14Z</time>
      </trkpt>
      <trkpt lat="50.75398" lon="6.01757">
        <ele>311</ele>
        <time>2025-04-20T13:13:17Z</time>
      </trkpt>
      <trkpt lat="50.75399" lon="6.01933">
        <ele>321</ele>
        <time>2025-04-20T13:13:43Z</time>
      </trkpt>
      <trkpt lat="50.75349" lon="6.02098">
        <ele>327</ele>
        <time>2025-04-20T13:14:10Z</time>
      </trkpt>
      <trkpt lat="50.75347" lon="6.02111">
        <ele>328</ele>
        <time>2025-04-20T13:14:12Z</time>
      </trkpt>
      <trkpt lat="50.75351" lon="6.02126">
        <ele>328</ele>
        <time>2025-04-20T13:14:14Z</time>
      </trkpt>
      <trkpt lat="50.75356" lon="6.02128">
        <ele>329</ele>
        <time>2025-04-20T13:14:15Z</time>
      </trkpt>
      <trkpt lat="50.7536" lon="6.02168">
        <ele>330</ele>
        <time>2025-04-20T13:14:21Z</time>
      </trkpt>
      <trkpt lat="50.75376" lon="6.02209">
        <ele>329</ele>
        <time>2025-04-20T13:14:29Z</time>
      </trkpt>
      <trkpt lat="50.7541" lon="6.02254">
        <ele>328</ele>
        <time>2025-04-20T13:14:39Z</time>
      </trkpt>
      <trkpt lat="50.75442" lon="6.02287">
        <ele>327</ele>
        <time>2025-04-20T13:14:48Z</time>
      </trkpt>
      <trkpt lat="50.75476" lon="6.02313">
        <ele>326</ele>
        <time>2025-04-20T13:14:57Z</time>
      </trkpt>
      <trkpt lat="50.75489" lon="6.02331">
        <ele>326</ele>
        <time>2025-04-20T13:15:01Z</time>
      </trkpt>
      <trkpt lat="50.75535" lon="6.02486">
        <ele>320</ele>
        <time>2025-04-20T13:15:26Z</time>
      </trkpt>
      <trkpt lat="50.75561" lon="6.02508">
        <ele>320</ele>
        <time>2025-04-20T13:15:33Z</time>
      </trkpt>
      <trkpt lat="50.75692" lon="6.02583">
        <ele>318</ele>
        <time>2025-04-20T13:16:05Z</time>
      </trkpt>
      <trkpt lat="50.75709" lon="6.02611">
        <ele>315</ele>
        <time>2025-04-20T13:16:11Z</time>
      </trkpt>
      <trkpt lat="50.75745" lon="6.02726">
        <ele>308</ele>
        <time>2025-04-20T13:16:30Z</time>
      </trkpt>
      <trkpt lat="50.75782" lon="6.02864">
        <ele>297</ele>
        <time>2025-04-20T13:16:52Z</time>
      </trkpt>
      <trkpt lat="50.75793" lon="6.02891">
        <ele>294</ele>
        <time>2025-04-20T13:16:57Z</time>
      </trkpt>
      <trkpt lat="50.75824" lon="6.02933">
        <ele>290</ele>
        <time>2025-04-20T13:17:06Z</time>
      </trkpt>
      <trkpt lat="50.75832" lon="6.02948">
        <ele>289</ele>
        <time>2025-04-20T13:17:09Z</time>
      </trkpt>
      <trkpt lat="50.75834" lon="6.02968">
        <ele>287</ele>
        <time>2025-04-20T13:17:12Z</time>
      </trkpt>
      <trkpt lat="50.75829" lon="6.0299">
        <ele>285</ele>
        <time>2025-04-20T13:17:16Z</time>
      </trkpt>
      <trkpt lat="50.75822" lon="6.03001">
        <ele>284</ele>
        <time>2025-04-20T13:17:18Z</time>
      </trkpt>
      <trkpt lat="50.75792" lon="6.03012">
        <ele>282</ele>
        <time>2025-04-20T13:17:25Z</time>
      </trkpt>
      <trkpt lat="50.75776" lon="6.03011">
        <ele>282</ele>
        <time>2025-04-20T13:17:29Z</time>
      </trkpt>
      <trkpt lat="50.75756" lon="6.03002">
        <ele>283</ele>
        <time>2025-04-20T13:17:34Z</time>
      </trkpt>
      <trkpt lat="50.75706" lon="6.0296">
        <ele>283</ele>
        <time>2025-04-20T13:17:47Z</time>
      </trkpt>
      <trkpt lat="50.75693" lon="6.02957">
        <ele>282</ele>
        <time>2025-04-20T13:17:50Z</time>
      </trkpt>
      <trkpt lat="50.75688" lon="6.02994">
        <ele>277</ele>
        <time>2025-04-20T13:17:56Z</time>
      </trkpt>
      <trkpt lat="50.75691" lon="6.03015">
        <ele>275</ele>
        <time>2025-04-20T13:17:59Z</time>
      </trkpt>
      <trkpt lat="50.75712" lon="6.03071">
        <ele>273</ele>
        <time>2025-04-20T13:18:09Z</time>
      </trkpt>
      <trkpt lat="50.75738" lon="6.03116">
        <ele>271</ele>
        <time>2025-04-20T13:18:18Z</time>
      </trkpt>
      <trkpt lat="50.75765" lon="6.03146">
        <ele>269</ele>
        <time>2025-04-20T13:18:25Z</time>
      </trkpt>
      <trkpt lat="50.75782" lon="6.03158">
        <ele>268</ele>
        <time>2025-04-20T13:18:30Z</time>
      </trkpt>
      <trkpt lat="50.75857" lon="6.03176">
        <ele>267</ele>
        <time>2025-04-20T13:18:47Z</time>
      </trkpt>
      <trkpt lat="50.75988" lon="6.03202">
        <ele>263</ele>
        <time>2025-04-20T13:19:18Z</time>
      </trkpt>
      <trkpt lat="50.76012" lon="6.03217">
        <ele>261</ele>
        <time>2025-04-20T13:19:24Z</time>
      </trkpt>
      <trkpt lat="50.76029" lon="6.03396">
        <ele>251</ele>
        <time>2025-04-20T13:19:51Z</time>
      </trkpt>
      <trkpt lat="50.76037" lon="6.03446">
        <ele>248</ele>
        <time>2025-04-20T13:19:59Z</time>
      </trkpt>
      <trkpt lat="50.76043" lon="6.03463">
        <ele>247</ele>
        <time>2025-04-20T13:20:01Z</time>
      </trkpt>
      <trkpt lat="50.7616" lon="6.03692">
        <ele>237</ele>
        <time>2025-04-20T13:20:45Z</time>
      </trkpt>
      <trkpt lat="50.76189" lon="6.03788">
        <ele>233</ele>
        <time>2025-04-20T13:21:01Z</time>
      </trkpt>
      <trkpt lat="50.76215" lon="6.03846">
        <ele>232</ele>
        <time>2025-04-20T13:21:11Z</time>
      </trkpt>
      <trkpt lat="50.76357" lon="6.04114">
        <ele>232</ele>
        <time>2025-04-20T13:22:03Z</time>
      </trkpt>
      <trkpt lat="50.76391" lon="6.04159">
        <ele>230</ele>
        <time>2025-04-20T13:22:13Z</time>
      </trkpt>
      <trkpt lat="50.76418" lon="6.04224">
        <ele>230</ele>
        <time>2025-04-20T13:22:25Z</time>
      </trkpt>
      <trkpt lat="50.76441" lon="6.04316">
        <ele>229</ele>
        <time>2025-04-20T13:22:39Z</time>
      </trkpt>
      <trkpt lat="50.76453" lon="6.04347">
        <ele>227</ele>
        <time>2025-04-20T13:22:45Z</time>
      </trkpt>
      <trkpt lat="50.76499" lon="6.0444">
        <ele>224</ele>
        <time>2025-04-20T13:23:02Z</time>
      </trkpt>
      <trkpt lat="50.76552" lon="6.04531">
        <ele>221</ele>
        <time>2025-04-20T13:23:20Z</time>
      </trkpt>
      <trkpt lat="50.76534" lon="6.04566">
        <ele>222</ele>
        <time>2025-04-20T13:23:27Z</time>
      </trkpt>
      <trkpt lat="50.76543" lon="6.04588">
        <ele>222</ele>
        <time>2025-04-20T13:23:31Z</time>
      </trkpt>
      <trkpt lat="50.76563" lon="6.04625">
        <ele>222</ele>
        <time>2025-04-20T13:23:38Z</time>
      </trkpt>
      <trkpt lat="50.76575" lon="6.04658">
        <ele>223</ele>
        <time>2025-04-20T13:23:44Z</time>
      </trkpt>
      <trkpt lat="50.76583" lon="6.04716">
        <ele>222</ele>
        <time>2025-04-20T13:23:52Z</time>
      </trkpt>
      <trkpt lat="50.76601" lon="6.04773">
        <ele>222</ele>
        <time>2025-04-20T13:24:02Z</time>
      </trkpt>
      <trkpt lat="50.76612" lon="6.04827">
        <ele>222</ele>
        <time>2025-04-20T13:24:10Z</time>
      </trkpt>
      <trkpt lat="50.76611" lon="6.04868">
        <ele>222</ele>
        <time>2025-04-20T13:24:16Z</time>
      </trkpt>
      <trkpt lat="50.76615" lon="6.04972">
        <ele>223</ele>
        <time>2025-04-20T13:24:32Z</time>
      </trkpt>
      <trkpt lat="50.7663" lon="6.05067">
        <ele>222</ele>
        <time>2025-04-20T13:24:46Z</time>
      </trkpt>
      <trkpt lat="50.76655" lon="6.05149">
        <ele>219</ele>
        <time>2025-04-20T13:25:00Z</time>
      </trkpt>
      <trkpt lat="50.76709" lon="6.05293">
        <ele>217</ele>
        <time>2025-04-20T13:25:24Z</time>
      </trkpt>
      <trkpt lat="50.76758" lon="6.05466">
        <ele>213</ele>
        <time>2025-04-20T13:25:52Z</time>
      </trkpt>
      <trkpt lat="50.76767" lon="6.05519">
        <ele>213</ele>
        <time>2025-04-20T13:26:00Z</time>
      </trkpt>
      <trkpt lat="50.76765" lon="6.05553">
        <ele>214</ele>
        <time>2025-04-20T13:26:05Z</time>
      </trkpt>
      <trkpt lat="50.76796" lon="6.05566">
        <ele>212</ele>
        <time>2025-04-20T13:26:13Z</time>
      </trkpt>
      <trkpt lat="50.76877" lon="6.05572">
        <ele>207</ele>
        <time>2025-04-20T13:26:32Z</time>
      </trkpt>
      <trkpt lat="50.76879" lon="6.05551">
        <ele>207</ele>
        <time>2025-04-20T13:26:35Z</time>
      </trkpt>
      <trkpt lat="50.76897" lon="6.05554">
        <ele>207</ele>
        <time>2025-04-20T13:26:39Z</time>
      </trkpt>
      <trkpt lat="50.769" lon="6.05506">
        <ele>207</ele>
        <time>2025-04-20T13:26:46Z</time>
      </trkpt>
      <trkpt lat="50.76911" lon="6.05512">
        <ele>207</ele>
        <time>2025-04-20T13:26:49Z</time>
      </trkpt>
      <trkpt lat="50.76939" lon="6.05545">
        <ele>206</ele>
        <time>2025-04-20T13:26:57Z</time>
      </trkpt>
      <trkpt lat="50.7698" lon="6.05611">
        <ele>204</ele>
        <time>2025-04-20T13:27:11Z</time>
      </trkpt>
      <trkpt lat="50.77011" lon="6.05697">
        <ele>202</ele>
        <time>2025-04-20T13:27:26Z</time>
      </trkpt>
      <trkpt lat="50.77043" lon="6.05704">
        <ele>203</ele>
        <time>2025-04-20T13:27:33Z</time>
      </trkpt>
      <trkpt lat="50.77049" lon="6.05712">
        <ele>203</ele>
        <time>2025-04-20T13:27:35Z</time>
      </trkpt>
      <trkpt lat="50.77051" lon="6.05723">
        <ele>203</ele>
        <time>2025-04-20T13:27:37Z</time>
      </trkpt>
      <trkpt lat="50.77049" lon="6.05753">
        <ele>202</ele>
        <time>2025-04-20T13:27:41Z</time>
      </trkpt>
      <trkpt lat="50.77026" lon="6.05777">
        <ele>201</ele>
        <time>2025-04-20T13:27:47Z</time>
      </trkpt>
      <trkpt lat="50.77026" lon="6.05791">
        <ele>201</ele>
        <time>2025-04-20T13:27:50Z</time>
      </trkpt>
      <trkpt lat="50.77082" lon="6.0595">
        <ele>197</ele>
        <time>2025-04-20T13:28:16Z</time>
      </trkpt>
      <trkpt lat="50.77131" lon="6.06063">
        <ele>196</ele>
        <time>2025-04-20T13:28:37Z</time>
      </trkpt>
      <trkpt lat="50.77175" lon="6.06155">
        <ele>194</ele>
        <time>2025-04-20T13:28:54Z</time>
      </trkpt>
      <trkpt lat="50.77198" lon="6.06215">
        <ele>195</ele>
        <time>2025-04-20T13:29:04Z</time>
      </trkpt>
      <trkpt lat="50.77224" lon="6.06303">
        <ele>196</ele>
        <time>2025-04-20T13:29:18Z</time>
      </trkpt>
      <trkpt lat="50.7723" lon="6.06343">
        <ele>196</ele>
        <time>2025-04-20T13:29:24Z</time>
      </trkpt>
      <trkpt lat="50.77233" lon="6.06432">
        <ele>196</ele>
        <time>2025-04-20T13:29:38Z</time>
      </trkpt>
      <trkpt lat="50.77204" lon="6.06506">
        <ele>196</ele>
        <time>2025-04-20T13:29:51Z</time>
      </trkpt>
      <trkpt lat="50.77203" lon="6.06578">
        <ele>195</ele>
        <time>2025-04-20T13:30:01Z</time>
      </trkpt>
      <trkpt lat="50.77191" lon="6.06636">
        <ele>194</ele>
        <time>2025-04-20T13:30:10Z</time>
      </trkpt>
      <trkpt lat="50.77182" lon="6.06719">
        <ele>196</ele>
        <time>2025-04-20T13:30:23Z</time>
      </trkpt>
      <trkpt lat="50.77178" lon="6.06784">
        <ele>197</ele>
        <time>2025-04-20T13:30:32Z</time>
      </trkpt>
      <trkpt lat="50.77181" lon="6.0682">
        <ele>196</ele>
        <time>2025-04-20T13:30:38Z</time>
      </trkpt>
      <trkpt lat="50.77177" lon="6.06848">
        <ele>196</ele>
        <time>2025-04-20T13:30:42Z</time>
      </trkpt>
      <trkpt lat="50.77183" lon="6.06877">
        <ele>195</ele>
        <time>2025-04-20T13:30:46Z</time>
      </trkpt>
      <trkpt lat="50.77186" lon="6.0695">
        <ele>193</ele>
        <time>2025-04-20T13:30:57Z</time>
      </trkpt>
      <trkpt lat="50.77203" lon="6.06979">
        <ele>192</ele>
        <time>2025-04-20T13:31:03Z</time>
      </trkpt>
      <trkpt lat="50.77207" lon="6.07">
        <ele>192</ele>
        <time>2025-04-20T13:31:06Z</time>
      </trkpt>
      <trkpt lat="50.77205" lon="6.07025">
        <ele>192</ele>
        <time>2025-04-20T13:31:10Z</time>
      </trkpt>
      <trkpt lat="50.77222" lon="6.07037">
        <ele>191</ele>
        <time>2025-04-20T13:31:14Z</time>
      </trkpt>
      <trkpt lat="50.77235" lon="6.0708">
        <ele>191</ele>
        <time>2025-04-20T13:31:21Z</time>
      </trkpt>
      <trkpt lat="50.77231" lon="6.07091">
        <ele>190</ele>
        <time>2025-04-20T13:31:23Z</time>
      </trkpt>
      <trkpt lat="50.77239" lon="6.07097">
        <ele>190</ele>
        <time>2025-04-20T13:31:25Z</time>
      </trkpt>
      <trkpt lat="50.7725" lon="6.07128">
        <ele>189</ele>
        <time>2025-04-20T13:31:31Z</time>
      </trkpt>
      <trkpt lat="50.77376" lon="6.07612">
        <ele>182</ele>
        <time>2025-04-20T13:32:48Z</time>
      </trkpt>
      <trkpt lat="50.77387" lon="6.07617">
        <ele>182</ele>
        <time>2025-04-20T13:32:51Z</time>
      </trkpt>
      <trkpt lat="50.77484" lon="6.07761">
        <ele>177</ele>
        <time>2025-04-20T13:33:22Z</time>
      </trkpt>
      <trkpt lat="50.77395" lon="6.07872">
        <ele>181</ele>
        <time>2025-04-20T13:33:48Z</time>
      </trkpt>
      <trkpt lat="50.77474" lon="6.08019">
        <ele>176</ele>
        <time>2025-04-20T13:34:17Z</time>
      </trkpt>
      <trkpt lat="50.77502" lon="6.08076">
        <ele>176</ele>
        <time>2025-04-20T13:34:27Z</time>
      </trkpt>
      <trkpt lat="50.77543" lon="6.08147">
        <ele>177</ele>
        <time>2025-04-20T13:34:41Z</time>
      </trkpt>
      <trkpt lat="50.77661" lon="6.08384">
        <ele>178</ele>
        <time>2025-04-20T13:35:26Z</time>
      </trkpt>
      <trkpt lat="50.7761" lon="6.08429">
        <ele>179</ele>
        <time>2025-04-20T13:35:40Z</time>
      </trkpt>
      <trkpt lat="50.77487" lon="6.08443">
        <ele>175</ele>
        <time>2025-04-20T13:36:08Z</time>
      </trkpt>
      <trkpt lat="50.77455" lon="6.08474">
        <ele>173</ele>
        <time>2025-04-20T13:36:17Z</time>
      </trkpt>
      <trkpt lat="50.77443" lon="6.08518">
        <ele>171</ele>
        <time>2025-04-20T13:36:24Z</time>
      </trkpt>
      <trkpt lat="50.77399" lon="6.08577">
        <ele>170</ele>
        <time>2025-04-20T13:36:38Z</time>
      </trkpt>
      <trkpt lat="50.77384" lon="6.08602">
        <ele>170</ele>
        <time>2025-04-20T13:36:43Z</time>
      </trkpt>
      <trkpt lat="50.77357" lon="6.08695">
        <ele>168</ele>
        <time>2025-04-20T13:36:58Z</time>
      </trkpt>
      <trkpt lat="50.77359" lon="6.08704">
        <ele>168</ele>
        <time>2025-04-20T13:36:59Z</time>
      </trkpt>
      <trkpt lat="50.77331" lon="6.0879">
        <ele>167</ele>
        <time>2025-04-20T13:37:14Z</time>
      </trkpt>
      <trkpt lat="50.77285" lon="6.08875">
        <ele>167</ele>
        <time>2025-04-20T13:37:30Z</time>
      </trkpt>
      <trkpt lat="50.77261" lon="6.08943">
        <ele>168</ele>
        <time>2025-04-20T13:37:42Z</time>
      </trkpt>
      <trkpt lat="50.77251" lon="6.09016">
        <ele>169</ele>
        <time>2025-04-20T13:37:53Z</time>
      </trkpt>
      <trkpt lat="50.77209" lon="6.09197">
        <ele>174</ele>
        <time>2025-04-20T13:38:21Z</time>
      </trkpt>
      <trkpt lat="50.77207" lon="6.09224">
        <ele>174</ele>
        <time>2025-04-20T13:38:25Z</time>
      </trkpt>
      <trkpt lat="50.7716" lon="6.09254">
        <ele>176</ele>
        <time>2025-04-20T13:38:37Z</time>
      </trkpt>
      <trkpt lat="50.77103" lon="6.09543">
        <ele>173</ele>
        <time>2025-04-20T13:39:22Z</time>
      </trkpt>
      <trkpt lat="50.7707" lon="6.09536">
        <ele>175</ele>
        <time>2025-04-20T13:39:29Z</time>
      </trkpt>
      <trkpt lat="50.77061" lon="6.09531">
        <ele>175</ele>
        <time>2025-04-20T13:39:32Z</time>
      </trkpt>
      <trkpt lat="50.76961" lon="6.09512">
        <ele>176</ele>
        <time>2025-04-20T13:39:55Z</time>
      </trkpt>
      <trkpt lat="50.76928" lon="6.09509">
        <ele>177</ele>
        <time>2025-04-20T13:40:03Z</time>
      </trkpt>
      <trkpt lat="50.76926" lon="6.0949">
        <ele>178</ele>
        <time>2025-04-20T13:40:06Z</time>
      </trkpt>
      <trkpt lat="50.76892" lon="6.09467">
        <ele>179</ele>
        <time>2025-04-20T13:40:14Z</time>
      </trkpt>
      <trkpt lat="50.76879" lon="6.09481">
        <ele>179</ele>
        <time>2025-04-20T13:40:18Z</time>
      </trkpt>
      <trkpt lat="50.76854" lon="6.09476">
        <ele>180</ele>
        <time>2025-04-20T13:40:24Z</time>
      </trkpt>
      <trkpt lat="50.7685" lon="6.09482">
        <ele>180</ele>
        <time>2025-04-20T13:40:25Z</time>
      </trkpt>
      <trkpt lat="50.76791" lon="6.09477">
        <ele>181</ele>
        <time>2025-04-20T13:40:39Z</time>
      </trkpt>
      <trkpt lat="50.76775" lon="6.095">
        <ele>180</ele>
        <time>2025-04-20T13:40:44Z</time>
      </trkpt>
      <trkpt lat="50.76696" lon="6.09486">
        <ele>181</ele>
        <time>2025-04-20T13:41:03Z</time>
      </trkpt>
      <trkpt lat="50.76683" lon="6.09488">
        <ele>181</ele>
        <time>2025-04-20T13:41:06Z</time>
      </trkpt>
      <trkpt lat="50.76676" lon="6.09507">
        <ele>180</ele>
        <time>2025-04-20T13:41:09Z</time>
      </trkpt>
      <trkpt lat="50.76608" lon="6.09773">
        <ele>179</ele>
        <time>2025-04-20T13:41:51Z</time>
      </trkpt>
      <trkpt lat="50.76614" lon="6.09776">
        <ele>178</ele>
        <time>2025-04-20T13:41:53Z</time>
      </trkpt>
      <trkpt lat="50.76604" lon="6.09817">
        <ele>179</ele>
        <time>2025-04-20T13:41:59Z</time>
      </trkpt>
      <trkpt lat="50.76627" lon="6.09868">
        <ele>179</ele>
        <time>2025-04-20T13:42:09Z</time>
      </trkpt>
      <trkpt lat="50.76625" lon="6.09875">
        <ele>179</ele>
        <time>2025-04-20T13:42:10Z</time>
      </trkpt>
      <trkpt lat="50.76663" lon="6.09895">
        <ele>178</ele>
        <time>2025-04-20T13:42:19Z</time>
      </trkpt>
      <trkpt lat="50.76766" lon="6.1003">
        <ele>173</ele>
        <time>2025-04-20T13:42:50Z</time>
      </trkpt>
      <trkpt lat="50.7669" lon="6.10219">
        <ele>174</ele>
        <time>2025-04-20T13:43:23Z</time>
      </trkpt>
      <trkpt lat="50.76659" lon="6.10219">
        <ele>175</ele>
        <time>2025-04-20T13:43:31Z</time>
      </trkpt>
      <trkpt lat="50.76635" lon="6.10224">
        <ele>176</ele>
        <time>2025-04-20T13:43:36Z</time>
      </trkpt>
      <trkpt lat="50.76615" lon="6.10287">
        <ele>176</ele>
        <time>2025-04-20T13:43:47Z</time>
      </trkpt>
      <trkpt lat="50.76587" lon="6.10479">
        <ele>175</ele>
        <time>2025-04-20T13:44:16Z</time>
      </trkpt>
      <trkpt lat="50.76581" lon="6.10602">
        <ele>175</ele>
        <time>2025-04-20T13:44:34Z</time>
      </trkpt>
      <trkpt lat="50.76587" lon="6.1071">
        <ele>177</ele>
        <time>2025-04-20T13:44:50Z</time>
      </trkpt>
      <trkpt lat="50.76611" lon="6.10844">
        <ele>180</ele>
        <time>2025-04-20T13:45:11Z</time>
      </trkpt>
      <trkpt lat="50.76648" lon="6.10968">
        <ele>180</ele>
        <time>2025-04-20T13:45:31Z</time>
      </trkpt>
      <trkpt lat="50.76714" lon="6.11095">
        <ele>182</ele>
        <time>2025-04-20T13:45:55Z</time>
      </trkpt>
      <trkpt lat="50.76949" lon="6.11484">
        <ele>179</ele>
        <time>2025-04-20T13:47:15Z</time>
      </trkpt>
      <trkpt lat="50.76972" lon="6.11505">
        <ele>178</ele>
        <time>2025-04-20T13:47:21Z</time>
      </trkpt>
      <trkpt lat="50.76979" lon="6.11522">
        <ele>178</ele>
        <time>2025-04-20T13:47:24Z</time>
      </trkpt>
      <trkpt lat="50.76989" lon="6.11529">
        <ele>178</ele>
        <time>2025-04-20T13:47:26Z</time>
      </trkpt>
      <trkpt lat="50.77061" lon="6.11642">
        <ele>179</ele>
        <time>2025-04-20T13:47:50Z</time>
      </trkpt>
      <trkpt lat="50.77025" lon="6.11715">
        <ele>181</ele>
        <time>2025-04-20T13:48:04Z</time>
      </trkpt>
      <trkpt lat="50.77039" lon="6.11724">
        <ele>181</ele>
        <time>2025-04-20T13:48:07Z</time>
      </trkpt>
      <trkpt lat="50.77126" lon="6.11886">
        <ele>184</ele>
        <time>2025-04-20T13:48:39Z</time>
      </trkpt>
      <trkpt lat="50.7722" lon="6.12157">
        <ele>184</ele>
        <time>2025-04-20T13:49:24Z</time>
      </trkpt>
      <trkpt lat="50.77246" lon="6.12269">
        <ele>184</ele>
        <time>2025-04-20T13:49:42Z</time>
      </trkpt>
      <trkpt lat="50.77261" lon="6.12408">
        <ele>186</ele>
        <time>2025-04-20T13:50:03Z</time>
      </trkpt>
      <trkpt lat="50.77272" lon="6.12447">
        <ele>188</ele>
        <time>2025-04-20T13:50:09Z</time>
      </trkpt>
      <trkpt lat="50.77286" lon="6.12667">
        <ele>191</ele>
        <time>2025-04-20T13:50:42Z</time>
      </trkpt>
      <trkpt lat="50.77281" lon="6.12798">
        <ele>190</ele>
        <time>2025-04-20T13:51:01Z</time>
      </trkpt>
      <trkpt lat="50.77267" lon="6.12903">
        <ele>190</ele>
        <time>2025-04-20T13:51:17Z</time>
      </trkpt>
      <trkpt lat="50.7726" lon="6.12943">
        <ele>192</ele>
        <time>2025-04-20T13:51:23Z</time>
      </trkpt>
      <trkpt lat="50.77253" lon="6.12963">
        <ele>193</ele>
        <time>2025-04-20T13:51:26Z</time>
      </trkpt>
      <trkpt lat="50.77173" lon="6.13465">
        <ele>195</ele>
        <time>2025-04-20T13:52:43Z</time>
      </trkpt>
      <trkpt lat="50.77093" lon="6.13946">
        <ele>200</ele>
        <time>2025-04-20T13:53:56Z</time>
      </trkpt>
      <trkpt lat="50.77085" lon="6.13961">
        <ele>200</ele>
        <time>2025-04-20T13:53:59Z</time>
      </trkpt>
      <trkpt lat="50.77064" lon="6.14086">
        <ele>198</ele>
        <time>2025-04-20T13:54:18Z</time>
      </trkpt>
      <trkpt lat="50.77062" lon="6.14145">
        <ele>198</ele>
        <time>2025-04-20T13:54:27Z</time>
      </trkpt>
      <trkpt lat="50.77046" lon="6.14285">
        <ele>199</ele>
        <time>2025-04-20T13:54:48Z</time>
      </trkpt>
      <trkpt lat="50.77036" lon="6.14315">
        <ele>200</ele>
        <time>2025-04-20T13:54:53Z</time>
      </trkpt>
      <trkpt lat="50.77027" lon="6.14496">
        <ele>201</ele>
        <time>2025-04-20T13:55:20Z</time>
      </trkpt>
      <trkpt lat="50.77024" lon="6.14648">
        <ele>201</ele>
        <time>2025-04-20T13:55:42Z</time>
      </trkpt>
      <trkpt lat="50.7703" lon="6.14672">
        <ele>201</ele>
        <time>2025-04-20T13:55:46Z</time>
      </trkpt>
      <trkpt lat="50.77022" lon="6.14827">
        <ele>205</ele>
        <time>2025-04-20T13:56:09Z</time>
      </trkpt>
      <trkpt lat="50.77005" lon="6.14915">
        <ele>207</ele>
        <time>2025-04-20T13:56:23Z</time>
      </trkpt>
      <trkpt lat="50.76995" lon="6.14934">
        <ele>207</ele>
        <time>2025-04-20T13:56:26Z</time>
      </trkpt>
      <trkpt lat="50.76925" lon="6.15276">
        <ele>211</ele>
        <time>2025-04-20T13:57:19Z</time>
      </trkpt>
      <trkpt lat="50.76916" lon="6.1535">
        <ele>211</ele>
        <time>2025-04-20T13:57:31Z</time>
      </trkpt>
      <trkpt lat="50.76908" lon="6.15457">
        <ele>211</ele>
        <time>2025-04-20T13:57:46Z</time>
      </trkpt>
      <trkpt lat="50.76918" lon="6.15861">
        <ele>216</ele>
        <time>2025-04-20T13:58:46Z</time>
      </trkpt>
      <trkpt lat="50.76908" lon="6.16033">
        <ele>218</ele>
        <time>2025-04-20T13:59:12Z</time>
      </trkpt>
      <trkpt lat="50.76881" lon="6.16174">
        <ele>220</ele>
        <time>2025-04-20T13:59:33Z</time>
      </trkpt>
      <trkpt lat="50.76841" lon="6.16302">
        <ele>221</ele>
        <time>2025-04-20T13:59:55Z</time>
      </trkpt>
      <trkpt lat="50.76795" lon="6.16412">
        <ele>222</ele>
        <time>2025-04-20T14:00:14Z</time>
      </trkpt>
      <trkpt lat="50.76762" lon="6.16472">
        <ele>222</ele>
        <time>2025-04-20T14:00:26Z</time>
      </trkpt>
      <trkpt lat="50.76767" lon="6.16479">
        <ele>221</ele>
        <time>2025-04-20T14:00:27Z</time>
      </trkpt>
      <trkpt lat="50.76692" lon="6.16575">
        <ele>220</ele>
        <time>2025-04-20T14:00:50Z</time>
      </trkpt>
      <trkpt lat="50.76627" lon="6.16637">
        <ele>223</ele>
        <time>2025-04-20T14:01:08Z</time>
      </trkpt>
      <trkpt lat="50.76569" lon="6.16675">
        <ele>226</ele>
        <time>2025-04-20T14:01:22Z</time>
      </trkpt>
      <trkpt lat="50.76524" lon="6.16697">
        <ele>226</ele>
        <time>2025-04-20T14:01:33Z</time>
      </trkpt>
      <trkpt lat="50.76454" lon="6.16714">
        <ele>226</ele>
        <time>2025-04-20T14:01:50Z</time>
      </trkpt>
      <trkpt lat="50.76382" lon="6.167">
        <ele>229</ele>
        <time>2025-04-20T14:02:07Z</time>
      </trkpt>
      <trkpt lat="50.76325" lon="6.16667">
        <ele>231</ele>
        <time>2025-04-20T14:02:21Z</time>
      </trkpt>
      <trkpt lat="50.76126" lon="6.16444">
        <ele>234</ele>
        <time>2025-04-20T14:03:18Z</time>
      </trkpt>
      <trkpt lat="50.76095" lon="6.16397">
        <ele>235</ele>
        <time>2025-04-20T14:03:28Z</time>
      </trkpt>
      <trkpt lat="50.75943" lon="6.1606">
        <ele>236</ele>
        <time>2025-04-20T14:04:29Z</time>
      </trkpt>
      <trkpt lat="50.75828" lon="6.15864">
        <ele>238</ele>
        <time>2025-04-20T14:05:09Z</time>
      </trkpt>
      <trkpt lat="50.75782" lon="6.1582">
        <ele>238</ele>
        <time>2025-04-20T14:05:21Z</time>
      </trkpt>
      <trkpt lat="50.75709" lon="6.15779">
        <ele>240</ele>
        <time>2025-04-20T14:05:39Z</time>
      </trkpt>
      <trkpt lat="50.75635" lon="6.15775">
        <ele>242</ele>
        <time>2025-04-20T14:05:56Z</time>
      </trkpt>
      <trkpt lat="50.75616" lon="6.15787">
        <ele>242</ele>
        <time>2025-04-20T14:06:01Z</time>
      </trkpt>
      <trkpt lat="50.75606" lon="6.15784">
        <ele>243</ele>
        <time>2025-04-20T14:06:04Z</time>
      </trkpt>
      <trkpt lat="50.75527" lon="6.158">
        <ele>244</ele>
        <time>2025-04-20T14:06:22Z</time>
      </trkpt>
      <trkpt lat="50.75466" lon="6.15816">
        <ele>245</ele>
        <time>2025-04-20T14:06:37Z</time>
      </trkpt>
      <trkpt lat="50.75415" lon="6.15826">
        <ele>245</ele>
        <time>2025-04-20T14:06:49Z</time>
      </trkpt>
      <trkpt lat="50.75373" lon="6.15843">
        <ele>245</ele>
        <time>2025-04-20T14:06:59Z</time>
      </trkpt>
      <trkpt lat="50.75318" lon="6.15855">
        <ele>245</ele>
        <time>2025-04-20T14:07:12Z</time>
      </trkpt>
      <trkpt lat="50.75259" lon="6.15854">
        <ele>245</ele>
        <time>2025-04-20T14:07:26Z</time>
      </trkpt>
      <trkpt lat="50.75227" lon="6.15857">
        <ele>245</ele>
        <time>2025-04-20T14:07:33Z</time>
      </trkpt>
      <trkpt lat="50.75215" lon="6.15853">
        <ele>245</ele>
        <time>2025-04-20T14:07:36Z</time>
      </trkpt>
      <trkpt lat="50.75207" lon="6.15868">
        <ele>246</ele>
        <time>2025-04-20T14:07:39Z</time>
      </trkpt>
      <trkpt lat="50.75184" lon="6.15865">
        <ele>246</ele>
        <time>2025-04-20T14:07:44Z</time>
      </trkpt>
      <trkpt lat="50.7515" lon="6.15855">
        <ele>247</ele>
        <time>2025-04-20T14:07:52Z</time>
      </trkpt>
      <trkpt lat="50.75111" lon="6.15833">
        <ele>247</ele>
        <time>2025-04-20T14:08:02Z</time>
      </trkpt>
      <trkpt lat="50.75057" lon="6.15787">
        <ele>247</ele>
        <time>2025-04-20T14:08:16Z</time>
      </trkpt>
      <trkpt lat="50.7505" lon="6.15762">
        <ele>247</ele>
        <time>2025-04-20T14:08:20Z</time>
      </trkpt>
      <trkpt lat="50.74956" lon="6.15636">
        <ele>248</ele>
        <time>2025-04-20T14:08:49Z</time>
      </trkpt>
      <trkpt lat="50.74942" lon="6.15634">
        <ele>248</ele>
        <time>2025-04-20T14:08:52Z</time>
      </trkpt>
      <trkpt lat="50.7492" lon="6.15595">
        <ele>249</ele>
        <time>2025-04-20T14:09:00Z</time>
      </trkpt>
      <trkpt lat="50.74772" lon="6.15393">
        <ele>251</ele>
        <time>2025-04-20T14:09:46Z</time>
      </trkpt>
      <trkpt lat="50.74675" lon="6.1527">
        <ele>254</ele>
        <time>2025-04-20T14:10:15Z</time>
      </trkpt>
      <trkpt lat="50.74589" lon="6.15208">
        <ele>254</ele>
        <time>2025-04-20T14:10:37Z</time>
      </trkpt>
      <trkpt lat="50.7441" lon="6.15114">
        <ele>252</ele>
        <time>2025-04-20T14:11:21Z</time>
      </trkpt>
      <trkpt lat="50.74326" lon="6.15094">
        <ele>251</ele>
        <time>2025-04-20T14:11:41Z</time>
      </trkpt>
      <trkpt lat="50.74284" lon="6.15098">
        <ele>252</ele>
        <time>2025-04-20T14:11:51Z</time>
      </trkpt>
      <trkpt lat="50.7421" lon="6.15137">
        <ele>252</ele>
        <time>2025-04-20T14:12:09Z</time>
      </trkpt>
      <trkpt lat="50.74137" lon="6.15216">
        <ele>251</ele>
        <time>2025-04-20T14:12:29Z</time>
      </trkpt>
      <trkpt lat="50.74105" lon="6.1528">
        <ele>253</ele>
        <time>2025-04-20T14:12:41Z</time>
      </trkpt>
      <trkpt lat="50.74068" lon="6.1541">
        <ele>255</ele>
        <time>2025-04-20T14:13:03Z</time>
      </trkpt>
      <trkpt lat="50.74059" lon="6.15518">
        <ele>255</ele>
        <time>2025-04-20T14:13:19Z</time>
      </trkpt>
      <trkpt lat="50.74059" lon="6.15737">
        <ele>254</ele>
        <time>2025-04-20T14:13:51Z</time>
      </trkpt>
      <trkpt lat="50.74051" lon="6.15752">
        <ele>254</ele>
        <time>2025-04-20T14:13:54Z</time>
      </trkpt>
      <trkpt lat="50.74055" lon="6.15777">
        <ele>254</ele>
        <time>2025-04-20T14:13:58Z</time>
      </trkpt>
      <trkpt lat="50.74064" lon="6.15785">
        <ele>254</ele>
        <time>2025-04-20T14:14:00Z</time>
      </trkpt>
      <trkpt lat="50.74057" lon="6.15807">
        <ele>253</ele>
        <time>2025-04-20T14:14:04Z</time>
      </trkpt>
      <trkpt lat="50.74053" lon="6.16205">
        <ele>253</ele>
        <time>2025-04-20T14:15:03Z</time>
      </trkpt>
      <trkpt lat="50.74056" lon="6.1628">
        <ele>250</ele>
        <time>2025-04-20T14:15:14Z</time>
      </trkpt>
      <trkpt lat="50.74087" lon="6.16548">
        <ele>251</ele>
        <time>2025-04-20T14:15:54Z</time>
      </trkpt>
      <trkpt lat="50.7409" lon="6.16603">
        <ele>250</ele>
        <time>2025-04-20T14:16:02Z</time>
      </trkpt>
      <trkpt lat="50.74081" lon="6.16704">
        <ele>242</ele>
        <time>2025-04-20T14:16:17Z</time>
      </trkpt>
      <trkpt lat="50.74066" lon="6.16771">
        <ele>235</ele>
        <time>2025-04-20T14:16:28Z</time>
      </trkpt>
      <trkpt lat="50.74041" lon="6.16843">
        <ele>232</ele>
        <time>2025-04-20T14:16:40Z</time>
      </trkpt>
      <trkpt lat="50.73869" lon="6.17203">
        <ele>245</ele>
        <time>2025-04-20T14:17:47Z</time>
      </trkpt>
      <trkpt lat="50.73799" lon="6.17288">
        <ele>247</ele>
        <time>2025-04-20T14:18:07Z</time>
      </trkpt>
      <trkpt lat="50.73741" lon="6.17328">
        <ele>244</ele>
        <time>2025-04-20T14:18:22Z</time>
      </trkpt>
      <trkpt lat="50.73691" lon="6.17341">
        <ele>242</ele>
        <time>2025-04-20T14:18:34Z</time>
      </trkpt>
      <trkpt lat="50.73656" lon="6.17341">
        <ele>241</ele>
        <time>2025-04-20T14:18:42Z</time>
      </trkpt>
      <trkpt lat="50.73605" lon="6.1733">
        <ele>242</ele>
        <time>2025-04-20T14:18:54Z</time>
      </trkpt>
      <trkpt lat="50.73584" lon="6.17321">
        <ele>243</ele>
        <time>2025-04-20T14:18:59Z</time>
      </trkpt>
      <trkpt lat="50.73565" lon="6.17309">
        <ele>243</ele>
        <time>2025-04-20T14:19:04Z</time>
      </trkpt>
      <trkpt lat="50.73502" lon="6.17257">
        <ele>247</ele>
        <time>2025-04-20T14:19:20Z</time>
      </trkpt>
      <trkpt lat="50.73469" lon="6.17242">
        <ele>250</ele>
        <time>2025-04-20T14:19:28Z</time>
      </trkpt>
      <trkpt lat="50.73424" lon="6.17227">
        <ele>254</ele>
        <time>2025-04-20T14:19:39Z</time>
      </trkpt>
      <trkpt lat="50.7337" lon="6.17226">
        <ele>252</ele>
        <time>2025-04-20T14:19:52Z</time>
      </trkpt>
      <trkpt lat="50.73303" lon="6.17254">
        <ele>247</ele>
        <time>2025-04-20T14:20:08Z</time>
      </trkpt>
      <trkpt lat="50.73252" lon="6.17292">
        <ele>244</ele>
        <time>2025-04-20T14:20:21Z</time>
      </trkpt>
      <trkpt lat="50.73108" lon="6.1749">
        <ele>250</ele>
        <time>2025-04-20T14:21:06Z</time>
      </trkpt>
      <trkpt lat="50.73054" lon="6.17579">
        <ele>250</ele>
        <time>2025-04-20T14:21:24Z</time>
      </trkpt>
      <trkpt lat="50.72983" lon="6.17685">
        <ele>247</ele>
        <time>2025-04-20T14:21:47Z</time>
      </trkpt>
      <trkpt lat="50.72978" lon="6.17709">
        <ele>247</ele>
        <time>2025-04-20T14:21:50Z</time>
      </trkpt>
      <trkpt lat="50.72877" lon="6.17874">
        <ele>245</ele>
        <time>2025-04-20T14:22:24Z</time>
      </trkpt>
      <trkpt lat="50.7286" lon="6.17892">
        <ele>246</ele>
        <time>2025-04-20T14:22:29Z</time>
      </trkpt>
      <trkpt lat="50.72863" lon="6.17901">
        <ele>246</ele>
        <time>2025-04-20T14:22:31Z</time>
      </trkpt>
      <trkpt lat="50.72836" lon="6.17921">
        <ele>247</ele>
        <time>2025-04-20T14:22:38Z</time>
      </trkpt>
      <trkpt lat="50.72834" lon="6.17934">
        <ele>246</ele>
        <time>2025-04-20T14:22:40Z</time>
      </trkpt>
      <trkpt lat="50.7276" lon="6.18034">
        <ele>246</ele>
        <time>2025-04-20T14:23:02Z</time>
      </trkpt>
      <trkpt lat="50.7274" lon="6.18066">
        <ele>246</ele>
        <time>2025-04-20T14:23:09Z</time>
      </trkpt>
      <trkpt lat="50.72728" lon="6.18056">
        <ele>248</ele>
        <time>2025-04-20T14:23:12Z</time>
      </trkpt>
      <trkpt lat="50.72686" lon="6.18082">
        <ele>252</ele>
        <time>2025-04-20T14:23:23Z</time>
      </trkpt>
      <trkpt lat="50.72638" lon="6.18117">
        <ele>255</ele>
        <time>2025-04-20T14:23:35Z</time>
      </trkpt>
      <trkpt lat="50.72605" lon="6.18124">
        <ele>256</ele>
        <time>2025-04-20T14:23:43Z</time>
      </trkpt>
      <trkpt lat="50.7257" lon="6.18095">
        <ele>258</ele>
        <time>2025-04-20T14:23:52Z</time>
      </trkpt>
      <trkpt lat="50.72518" lon="6.18033">
        <ele>260</ele>
        <time>2025-04-20T14:24:07Z</time>
      </trkpt>
      <trkpt lat="50.72453" lon="6.17972">
        <ele>258</ele>
        <time>2025-04-20T14:24:25Z</time>
      </trkpt>
      <trkpt lat="50.72432" lon="6.17973">
        <ele>257</ele>
        <time>2025-04-20T14:24:30Z</time>
      </trkpt>
      <trkpt lat="50.72403" lon="6.1799">
        <ele>254</ele>
        <time>2025-04-20T14:24:37Z</time>
      </trkpt>
      <trkpt lat="50.72337" lon="6.17969">
        <ele>243</ele>
        <time>2025-04-20T14:24:53Z</time>
      </trkpt>
      <trkpt lat="50.72274" lon="6.17926">
        <ele>238</ele>
        <time>2025-04-20T14:25:09Z</time>
      </trkpt>
      <trkpt lat="50.72223" lon="6.17923">
        <ele>235</ele>
        <time>2025-04-20T14:25:21Z</time>
      </trkpt>
      <trkpt lat="50.72181" lon="6.17898">
        <ele>235</ele>
        <time>2025-04-20T14:25:31Z</time>
      </trkpt>
      <trkpt lat="50.72119" lon="6.17917">
        <ele>234</ele>
        <time>2025-04-20T14:25:46Z</time>
      </trkpt>
      <trkpt lat="50.72089" lon="6.17918">
        <ele>234</ele>
        <time>2025-04-20T14:25:53Z</time>
      </trkpt>
      <trkpt lat="50.72067" lon="6.17938">
        <ele>238</ele>
        <time>2025-04-20T14:25:59Z</time>
      </trkpt>
      <trkpt lat="50.71991" lon="6.1796">
        <ele>251</ele>
        <time>2025-04-20T14:26:17Z</time>
      </trkpt>
      <trkpt lat="50.71965" lon="6.17932">
        <ele>254</ele>
        <time>2025-04-20T14:26:24Z</time>
      </trkpt>
      <trkpt lat="50.71869" lon="6.17932">
        <ele>263</ele>
        <time>2025-04-20T14:26:47Z</time>
      </trkpt>
      <trkpt lat="50.71663" lon="6.17867">
        <ele>277</ele>
        <time>2025-04-20T14:27:36Z</time>
      </trkpt>
      <trkpt lat="50.71637" lon="6.17856">
        <ele>278</ele>
        <time>2025-04-20T14:27:42Z</time>
      </trkpt>
      <trkpt lat="50.71627" lon="6.17858">
        <ele>278</ele>
        <time>2025-04-20T14:27:44Z</time>
      </trkpt>
      <trkpt lat="50.71562" lon="6.17888">
        <ele>280</ele>
        <time>2025-04-20T14:28:00Z</time>
      </trkpt>
      <trkpt lat="50.71521" lon="6.17885">
        <ele>281</ele>
        <time>2025-04-20T14:28:10Z</time>
      </trkpt>
      <trkpt lat="50.71484" lon="6.17896">
        <ele>282</ele>
        <time>2025-04-20T14:28:19Z</time>
      </trkpt>
      <trkpt lat="50.71418" lon="6.17898">
        <ele>284</ele>
        <time>2025-04-20T14:28:34Z</time>
      </trkpt>
      <trkpt lat="50.71348" lon="6.17907">
        <ele>285</ele>
        <time>2025-04-20T14:28:50Z</time>
      </trkpt>
      <trkpt lat="50.71296" lon="6.1788">
        <ele>285</ele>
        <time>2025-04-20T14:29:03Z</time>
      </trkpt>
      <trkpt lat="50.71214" lon="6.17886">
        <ele>286</ele>
        <time>2025-04-20T14:29:22Z</time>
      </trkpt>
      <trkpt lat="50.71138" lon="6.17877">
        <ele>288</ele>
        <time>2025-04-20T14:29:40Z</time>
      </trkpt>
      <trkpt lat="50.71107" lon="6.17847">
        <ele>288</ele>
        <time>2025-04-20T14:29:49Z</time>
      </trkpt>
      <trkpt lat="50.71071" lon="6.17834">
        <ele>289</ele>
        <time>2025-04-20T14:29:57Z</time>
      </trkpt>
      <trkpt lat="50.70971" lon="6.17732">
        <ele>291</ele>
        <time>2025-04-20T14:30:25Z</time>
      </trkpt>
      <trkpt lat="50.70931" lon="6.17814">
        <ele>293</ele>
        <time>2025-04-20T14:30:40Z</time>
      </trkpt>
      <trkpt lat="50.70878" lon="6.17901">
        <ele>290</ele>
        <time>2025-04-20T14:30:58Z</time>
      </trkpt>
      <trkpt lat="50.70813" lon="6.17989">
        <ele>284</ele>
        <time>2025-04-20T14:31:18Z</time>
      </trkpt>
      <trkpt lat="50.70763" lon="6.18093">
        <ele>278</ele>
        <time>2025-04-20T14:31:38Z</time>
      </trkpt>
      <trkpt lat="50.70723" lon="6.1824">
        <ele>278</ele>
        <time>2025-04-20T14:32:01Z</time>
      </trkpt>
      <trkpt lat="50.70682" lon="6.18222">
        <ele>277</ele>
        <time>2025-04-20T14:32:11Z</time>
      </trkpt>
      <trkpt lat="50.70634" lon="6.18195">
        <ele>277</ele>
        <time>2025-04-20T14:32:23Z</time>
      </trkpt>
      <trkpt lat="50.70555" lon="6.18156">
        <ele>277</ele>
        <time>2025-04-20T14:32:42Z</time>
      </trkpt>
      <trkpt lat="50.70273" lon="6.18006">
        <ele>287</ele>
        <time>2025-04-20T14:33:52Z</time>
      </trkpt>
      <trkpt lat="50.7022" lon="6.17998">
        <ele>288</ele>
        <time>2025-04-20T14:34:04Z</time>
      </trkpt>
      <trkpt lat="50.6953" lon="6.1837">
        <ele>278</ele>
        <time>2025-04-20T14:36:55Z</time>
      </trkpt>
      <trkpt lat="50.69486" lon="6.18371">
        <ele>279</ele>
        <time>2025-04-20T14:37:05Z</time>
      </trkpt>
      <trkpt lat="50.69401" lon="6.18317">
        <ele>281</ele>
        <time>2025-04-20T14:37:26Z</time>
      </trkpt>
      <trkpt lat="50.69197" lon="6.18036">
        <ele>298</ele>
        <time>2025-04-20T14:38:29Z</time>
      </trkpt>
      <trkpt lat="50.69113" lon="6.17961">
        <ele>302</ele>
        <time>2025-04-20T14:38:52Z</time>
      </trkpt>
      <trkpt lat="50.69011" lon="6.17931">
        <ele>299</ele>
        <time>2025-04-20T14:39:16Z</time>
      </trkpt>
      <trkpt lat="50.68764" lon="6.17874">
        <ele>301</ele>
        <time>2025-04-20T14:40:15Z</time>
      </trkpt>
      <trkpt lat="50.6869" lon="6.17877">
        <ele>305</ele>
        <time>2025-04-20T14:40:32Z</time>
      </trkpt>
      <trkpt lat="50.68651" lon="6.1789">
        <ele>308</ele>
        <time>2025-04-20T14:40:41Z</time>
      </trkpt>
      <trkpt lat="50.68395" lon="6.18006">
        <ele>327</ele>
        <time>2025-04-20T14:41:43Z</time>
      </trkpt>
      <trkpt lat="50.68303" lon="6.18044">
        <ele>338</ele>
        <time>2025-04-20T14:42:06Z</time>
      </trkpt>
      <trkpt lat="50.68279" lon="6.1806">
        <ele>340</ele>
        <time>2025-04-20T14:42:12Z</time>
      </trkpt>
      <trkpt lat="50.68177" lon="6.18094">
        <ele>345</ele>
        <time>2025-04-20T14:42:36Z</time>
      </trkpt>
      <trkpt lat="50.68106" lon="6.18124">
        <ele>346</ele>
        <time>2025-04-20T14:42:53Z</time>
      </trkpt>
      <trkpt lat="50.68077" lon="6.1811">
        <ele>346</ele>
        <time>2025-04-20T14:43:00Z</time>
      </trkpt>
      <trkpt lat="50.68031" lon="6.18129">
        <ele>346</ele>
        <time>2025-04-20T14:43:11Z</time>
      </trkpt>
      <trkpt lat="50.68012" lon="6.18157">
        <ele>345</ele>
        <time>2025-04-20T14:43:17Z</time>
      </trkpt>
      <trkpt lat="50.67986" lon="6.18172">
        <ele>344</ele>
        <time>2025-04-20T14:43:24Z</time>
      </trkpt>
      <trkpt lat="50.66446" lon="6.18792">
        <ele>408</ele>
        <time>2025-04-20T14:49:35Z</time>
      </trkpt>
      <trkpt lat="50.66438" lon="6.18927">
        <ele>410</ele>
        <time>2025-04-20T14:49:55Z</time>
      </trkpt>
      <trkpt lat="50.66432" lon="6.1911">
        <ele>413</ele>
        <time>2025-04-20T14:50:22Z</time>
      </trkpt>
      <trkpt lat="50.66424" lon="6.1918">
        <ele>413</ele>
        <time>2025-04-20T14:50:33Z</time>
      </trkpt>
      <trkpt lat="50.66399" lon="6.19288">
        <ele>414</ele>
        <time>2025-04-20T14:50:50Z</time>
      </trkpt>
      <trkpt lat="50.66364" lon="6.19374">
        <ele>415</ele>
        <time>2025-04-20T14:51:05Z</time>
      </trkpt>
      <trkpt lat="50.66327" lon="6.19426">
        <ele>416</ele>
        <time>2025-04-20T14:51:16Z</time>
      </trkpt>
      <trkpt lat="50.66282" lon="6.19471">
        <ele>417</ele>
        <time>2025-04-20T14:51:29Z</time>
      </trkpt>
      <trkpt lat="50.65969" lon="6.19621">
        <ele>421</ele>
        <time>2025-04-20T14:52:45Z</time>
      </trkpt>
      <trkpt lat="50.65864" lon="6.19645">
        <ele>419</ele>
        <time>2025-04-20T14:53:10Z</time>
      </trkpt>
      <trkpt lat="50.65803" lon="6.19629">
        <ele>416</ele>
        <time>2025-04-20T14:53:25Z</time>
      </trkpt>
      <trkpt lat="50.65736" lon="6.19587">
        <ele>415</ele>
        <time>2025-04-20T14:53:41Z</time>
      </trkpt>
      <trkpt lat="50.65694" lon="6.19537">
        <ele>414</ele>
        <time>2025-04-20T14:53:54Z</time>
      </trkpt>
      <trkpt lat="50.65394" lon="6.19031">
        <ele>415</ele>
        <time>2025-04-20T14:55:36Z</time>
      </trkpt>
      <trkpt lat="50.65239" lon="6.18783">
        <ele>416</ele>
        <time>2025-04-20T14:56:28Z</time>
      </trkpt>
      <trkpt lat="50.65179" lon="6.18691">
        <ele>417</ele>
        <time>2025-04-20T14:56:47Z</time>
      </trkpt>
      <trkpt lat="50.65105" lon="6.18609">
        <ele>415</ele>
        <time>2025-04-20T14:57:08Z</time>
      </trkpt>
      <trkpt lat="50.65002" lon="6.18536">
        <ele>415</ele>
        <time>2025-04-20T14:57:35Z</time>
      </trkpt>
      <trkpt lat="50.64808" lon="6.18415">
        <ele>417</ele>
        <time>2025-04-20T14:58:24Z</time>
      </trkpt>
      <trkpt lat="50.64788" lon="6.18418">
        <ele>417</ele>
        <time>2025-04-20T14:58:28Z</time>
      </trkpt>
      <trkpt lat="50.64783" lon="6.18383">
        <ele>417</ele>
        <time>2025-04-20T14:58:34Z</time>
      </trkpt>
      <trkpt lat="50.64758" lon="6.18393">
        <ele>417</ele>
        <time>2025-04-20T14:58:40Z</time>
      </trkpt>
      <trkpt lat="50.64704" lon="6.18366">
        <ele>417</ele>
        <time>2025-04-20T14:58:53Z</time>
      </trkpt>
      <trkpt lat="50.64645" lon="6.18352">
        <ele>417</ele>
        <time>2025-04-20T14:59:07Z</time>
      </trkpt>
      <trkpt lat="50.64591" lon="6.18353">
        <ele>416</ele>
        <time>2025-04-20T14:59:19Z</time>
      </trkpt>
      <trkpt lat="50.64504" lon="6.18378">
        <ele>413</ele>
        <time>2025-04-20T14:59:40Z</time>
      </trkpt>
      <trkpt lat="50.64227" lon="6.18467">
        <ele>417</ele>
        <time>2025-04-20T15:00:46Z</time>
      </trkpt>
      <trkpt lat="50.64153" lon="6.18522">
        <ele>419</ele>
        <time>2025-04-20T15:01:05Z</time>
      </trkpt>
      <trkpt lat="50.64105" lon="6.18572">
        <ele>421</ele>
        <time>2025-04-20T15:01:19Z</time>
      </trkpt>
      <trkpt lat="50.6405" lon="6.18667">
        <ele>424</ele>
        <time>2025-04-20T15:01:38Z</time>
      </trkpt>
      <trkpt lat="50.64029" lon="6.18715">
        <ele>425</ele>
        <time>2025-04-20T15:01:46Z</time>
      </trkpt>
      <trkpt lat="50.63994" lon="6.18831">
        <ele>429</ele>
        <time>2025-04-20T15:02:05Z</time>
      </trkpt>
      <trkpt lat="50.6397" lon="6.18978">
        <ele>432</ele>
        <time>2025-04-20T15:02:28Z</time>
      </trkpt>
      <trkpt lat="50.63968" lon="6.19076">
        <ele>435</ele>
        <time>2025-04-20T15:02:42Z</time>
      </trkpt>
      <trkpt lat="50.63981" lon="6.19219">
        <ele>437</ele>
        <time>2025-04-20T15:03:04Z</time>
      </trkpt>
      <trkpt lat="50.64039" lon="6.194">
        <ele>440</ele>
        <time>2025-04-20T15:03:34Z</time>
      </trkpt>
      <trkpt lat="50.64041" lon="6.19417">
        <ele>440</ele>
        <time>2025-04-20T15:03:36Z</time>
      </trkpt>
      <trkpt lat="50.63942" lon="6.19678">
        <ele>452</ele>
        <time>2025-04-20T15:04:21Z</time>
      </trkpt>
      <trkpt lat="50.63161" lon="6.21963">
        <ele>508</ele>
        <time>2025-04-20T15:10:46Z</time>
      </trkpt>
      <trkpt lat="50.62647" lon="6.23453">
        <ele>571</ele>
        <time>2025-04-20T15:14:57Z</time>
      </trkpt>
      <trkpt lat="50.62628" lon="6.23444">
        <ele>570</ele>
        <time>2025-04-20T15:15:02Z</time>
      </trkpt>
      <trkpt lat="50.62611" lon="6.23496">
        <ele>571</ele>
        <time>2025-04-20T15:15:10Z</time>
      </trkpt>
      <trkpt lat="50.6257" lon="6.2359">
        <ele>572</ele>
        <time>2025-04-20T15:15:27Z</time>
      </trkpt>
      <trkpt lat="50.62527" lon="6.23644">
        <ele>571</ele>
        <time>2025-04-20T15:15:40Z</time>
      </trkpt>
      <trkpt lat="50.62402" lon="6.23717">
        <ele>570</ele>
        <time>2025-04-20T15:16:11Z</time>
      </trkpt>
      <trkpt lat="50.61677" lon="6.24067">
        <ele>571</ele>
        <time>2025-04-20T15:19:08Z</time>
      </trkpt>
      <trkpt lat="50.61165" lon="6.24311">
        <ele>580</ele>
        <time>2025-04-20T15:21:13Z</time>
      </trkpt>
      <trkpt lat="50.60508" lon="6.24638">
        <ele>557</ele>
        <time>2025-04-20T15:23:54Z</time>
      </trkpt>
      <trkpt lat="50.60333" lon="6.24719">
        <ele>551</ele>
        <time>2025-04-20T15:24:37Z</time>
      </trkpt>
      <trkpt lat="50.60302" lon="6.24737">
        <ele>550</ele>
        <time>2025-04-20T15:24:44Z</time>
      </trkpt>
      <trkpt lat="50.60282" lon="6.24736">
        <ele>550</ele>
        <time>2025-04-20T15:24:49Z</time>
      </trkpt>
      <trkpt lat="50.60245" lon="6.24742">
        <ele>550</ele>
        <time>2025-04-20T15:24:58Z</time>
      </trkpt>
      <trkpt lat="50.60206" lon="6.24754">
        <ele>550</ele>
        <time>2025-04-20T15:25:07Z</time>
      </trkpt>
      <trkpt lat="50.6012" lon="6.24787">
        <ele>552</ele>
        <time>2025-04-20T15:25:28Z</time>
      </trkpt>
      <trkpt lat="50.59901" lon="6.24886">
        <ele>552</ele>
        <time>2025-04-20T15:26:21Z</time>
      </trkpt>
      <trkpt lat="50.59853" lon="6.249">
        <ele>551</ele>
        <time>2025-04-20T15:26:32Z</time>
      </trkpt>
      <trkpt lat="50.59804" lon="6.24903">
        <ele>551</ele>
        <time>2025-04-20T15:26:44Z</time>
      </trkpt>
      <trkpt lat="50.5976" lon="6.24892">
        <ele>549</ele>
        <time>2025-04-20T15:26:54Z</time>
      </trkpt>
      <trkpt lat="50.59715" lon="6.2487">
        <ele>549</ele>
        <time>2025-04-20T15:27:05Z</time>
      </trkpt>
      <trkpt lat="50.59622" lon="6.24805">
        <ele>547</ele>
        <time>2025-04-20T15:27:29Z</time>
      </trkpt>
      <trkpt lat="50.59507" lon="6.24719">
        <ele>550</ele>
        <time>2025-04-20T15:27:59Z</time>
      </trkpt>
      <trkpt lat="50.59404" lon="6.24638">
        <ele>548</ele>
        <time>2025-04-20T15:28:26Z</time>
      </trkpt>
      <trkpt lat="50.59361" lon="6.24597">
        <ele>546</ele>
        <time>2025-04-20T15:28:37Z</time>
      </trkpt>
      <trkpt lat="50.59263" lon="6.24467">
        <ele>543</ele>
        <time>2025-04-20T15:29:07Z</time>
      </trkpt>
      <trkpt lat="50.59153" lon="6.24353">
        <ele>545</ele>
        <time>2025-04-20T15:29:38Z</time>
      </trkpt>
      <trkpt lat="50.59048" lon="6.24275">
        <ele>542</ele>
        <time>2025-04-20T15:30:05Z</time>
      </trkpt>
      <trkpt lat="50.58684" lon="6.24056">
        <ele>538</ele>
        <time>2025-04-20T15:31:36Z</time>
      </trkpt>
      <trkpt lat="50.58556" lon="6.23991">
        <ele>536</ele>
        <time>2025-04-20T15:32:07Z</time>
      </trkpt>
      <trkpt lat="50.58468" lon="6.23963">
        <ele>535</ele>
        <time>2025-04-20T15:32:28Z</time>
      </trkpt>
      <trkpt lat="50.58194" lon="6.23912">
        <ele>532</ele>
        <time>2025-04-20T15:33:33Z</time>
      </trkpt>
      <trkpt lat="50.58133" lon="6.23898">
        <ele>532</ele>
        <time>2025-04-20T15:33:47Z</time>
      </trkpt>
      <trkpt lat="50.57847" lon="6.23942">
        <ele>527</ele>
        <time>2025-04-20T15:34:54Z</time>
      </trkpt>
      <trkpt lat="50.57715" lon="6.2393">
        <ele>527</ele>
        <time>2025-04-20T15:35:25Z</time>
      </trkpt>
      <trkpt lat="50.57562" lon="6.23855">
        <ele>524</ele>
        <time>2025-04-20T15:36:03Z</time>
      </trkpt>
      <trkpt lat="50.5746" lon="6.23799">
        <ele>523</ele>
        <time>2025-04-20T15:36:28Z</time>
      </trkpt>
      <trkpt lat="50.57297" lon="6.23658">
        <ele>523</ele>
        <time>2025-04-20T15:37:11Z</time>
      </trkpt>
      <trkpt lat="50.57245" lon="6.23629">
        <ele>524</ele>
        <time>2025-04-20T15:37:24Z</time>
      </trkpt>
      <trkpt lat="50.57181" lon="6.23619">
        <ele>523</ele>
        <time>2025-04-20T15:37:39Z</time>
      </trkpt>
      <trkpt lat="50.57108" lon="6.23622">
        <ele>522</ele>
        <time>2025-04-20T15:37:56Z</time>
      </trkpt>
      <trkpt lat="50.56947" lon="6.23616">
        <ele>516</ele>
        <time>2025-04-20T15:38:34Z</time>
      </trkpt>
      <trkpt lat="50.56766" lon="6.23622">
        <ele>517</ele>
        <time>2025-04-20T15:39:16Z</time>
      </trkpt>
      <trkpt lat="50.56707" lon="6.23619">
        <ele>520</ele>
        <time>2025-04-20T15:39:30Z</time>
      </trkpt>
      <trkpt lat="50.56642" lon="6.23601">
        <ele>522</ele>
        <time>2025-04-20T15:39:45Z</time>
      </trkpt>
      <trkpt lat="50.56542" lon="6.23511">
        <ele>523</ele>
        <time>2025-04-20T15:40:12Z</time>
      </trkpt>
      <trkpt lat="50.56488" lon="6.23428">
        <ele>522</ele>
        <time>2025-04-20T15:40:30Z</time>
      </trkpt>
      <trkpt lat="50.56402" lon="6.23218">
        <ele>517</ele>
        <time>2025-04-20T15:41:07Z</time>
      </trkpt>
      <trkpt lat="50.56316" lon="6.22989">
        <ele>514</ele>
        <time>2025-04-20T15:41:46Z</time>
      </trkpt>
      <trkpt lat="50.56177" lon="6.2274">
        <ele>521</ele>
        <time>2025-04-20T15:42:36Z</time>
      </trkpt>
      <trkpt lat="50.56074" lon="6.22669">
        <ele>524</ele>
        <time>2025-04-20T15:43:02Z</time>
      </trkpt>
      <trkpt lat="50.56006" lon="6.2266">
        <ele>523</ele>
        <time>2025-04-20T15:43:18Z</time>
      </trkpt>
      <trkpt lat="50.55752" lon="6.22662">
        <ele>520</ele>
        <time>2025-04-20T15:44:17Z</time>
      </trkpt>
      <trkpt lat="50.55664" lon="6.22646">
        <ele>520</ele>
        <time>2025-04-20T15:44:38Z</time>
      </trkpt>
      <trkpt lat="50.55601" lon="6.22602">
        <ele>523</ele>
        <time>2025-04-20T15:44:54Z</time>
      </trkpt>
      <trkpt lat="50.55535" lon="6.22515">
        <ele>529</ele>
        <time>2025-04-20T15:45:14Z</time>
      </trkpt>
      <trkpt lat="50.55492" lon="6.22411">
        <ele>532</ele>
        <time>2025-04-20T15:45:32Z</time>
      </trkpt>
      <trkpt lat="50.55475" lon="6.22311">
        <ele>532</ele>
        <time>2025-04-20T15:45:48Z</time>
      </trkpt>
      <trkpt lat="50.55471" lon="6.22182">
        <ele>530</ele>
        <time>2025-04-20T15:46:07Z</time>
      </trkpt>
      <trkpt lat="50.55492" lon="6.22068">
        <ele>530</ele>
        <time>2025-04-20T15:46:25Z</time>
      </trkpt>
      <trkpt lat="50.55589" lon="6.21863">
        <ele>525</ele>
        <time>2025-04-20T15:47:02Z</time>
      </trkpt>
      <trkpt lat="50.55622" lon="6.21767">
        <ele>522</ele>
        <time>2025-04-20T15:47:19Z</time>
      </trkpt>
      <trkpt lat="50.55643" lon="6.21671">
        <ele>523</ele>
        <time>2025-04-20T15:47:34Z</time>
      </trkpt>
      <trkpt lat="50.55641" lon="6.21542">
        <ele>526</ele>
        <time>2025-04-20T15:47:53Z</time>
      </trkpt>
      <trkpt lat="50.55624" lon="6.21448">
        <ele>528</ele>
        <time>2025-04-20T15:48:07Z</time>
      </trkpt>
      <trkpt lat="50.5561" lon="6.21393">
        <ele>529</ele>
        <time>2025-04-20T15:48:16Z</time>
      </trkpt>
      <trkpt lat="50.55512" lon="6.21178">
        <ele>529</ele>
        <time>2025-04-20T15:48:55Z</time>
      </trkpt>
      <trkpt lat="50.5546" lon="6.21082">
        <ele>529</ele>
        <time>2025-04-20T15:49:14Z</time>
      </trkpt>
      <trkpt lat="50.55378" lon="6.21">
        <ele>529</ele>
        <time>2025-04-20T15:49:37Z</time>
      </trkpt>
      <trkpt lat="50.55322" lon="6.20977">
        <ele>530</ele>
        <time>2025-04-20T15:49:50Z</time>
      </trkpt>
      <trkpt lat="50.55274" lon="6.20971">
        <ele>531</ele>
        <time>2025-04-20T15:50:02Z</time>
      </trkpt>
      <trkpt lat="50.55192" lon="6.2097">
        <ele>525</ele>
        <time>2025-04-20T15:50:21Z</time>
      </trkpt>
      <trkpt lat="50.55127" lon="6.20947">
        <ele>518</ele>
        <time>2025-04-20T15:50:36Z</time>
      </trkpt>
      <trkpt lat="50.55076" lon="6.20913">
        <ele>518</ele>
        <time>2025-04-20T15:50:49Z</time>
      </trkpt>
      <trkpt lat="50.54968" lon="6.2081">
        <ele>522</ele>
        <time>2025-04-20T15:51:19Z</time>
      </trkpt>
      <trkpt lat="50.54897" lon="6.20767">
        <ele>521</ele>
        <time>2025-04-20T15:51:36Z</time>
      </trkpt>
      <trkpt lat="50.54843" lon="6.20761">
        <ele>519</ele>
        <time>2025-04-20T15:51:49Z</time>
      </trkpt>
      <trkpt lat="50.54778" lon="6.20763">
        <ele>519</ele>
        <time>2025-04-20T15:52:04Z</time>
      </trkpt>
      <trkpt lat="50.54719" lon="6.20754">
        <ele>520</ele>
        <time>2025-04-20T15:52:18Z</time>
      </trkpt>
      <trkpt lat="50.54664" lon="6.20727">
        <ele>523</ele>
        <time>2025-04-20T15:52:32Z</time>
      </trkpt>
      <trkpt lat="50.54603" lon="6.20674">
        <ele>522</ele>
        <time>2025-04-20T15:52:48Z</time>
      </trkpt>
      <trkpt lat="50.54545" lon="6.2059">
        <ele>514</ele>
        <time>2025-04-20T15:53:06Z</time>
      </trkpt>
      <trkpt lat="50.54507" lon="6.20504">
        <ele>508</ele>
        <time>2025-04-20T15:53:22Z</time>
      </trkpt>
      <trkpt lat="50.54453" lon="6.20298">
        <ele>514</ele>
        <time>2025-04-20T15:53:55Z</time>
      </trkpt>
      <trkpt lat="50.54426" lon="6.20228">
        <ele>518</ele>
        <time>2025-04-20T15:54:07Z</time>
      </trkpt>
      <trkpt lat="50.54373" lon="6.20147">
        <ele>522</ele>
        <time>2025-04-20T15:54:24Z</time>
      </trkpt>
      <trkpt lat="50.54311" lon="6.20089">
        <ele>521</ele>
        <time>2025-04-20T15:54:41Z</time>
      </trkpt>
      <trkpt lat="50.54251" lon="6.20055">
        <ele>517</ele>
        <time>2025-04-20T15:54:56Z</time>
      </trkpt>
      <trkpt lat="50.54168" lon="6.19999">
        <ele>516</ele>
        <time>2025-04-20T15:55:17Z</time>
      </trkpt>
      <trkpt lat="50.54082" lon="6.1989">
        <ele>516</ele>
        <time>2025-04-20T15:55:43Z</time>
      </trkpt>
      <trkpt lat="50.54013" lon="6.19837">
        <ele>502</ele>
        <time>2025-04-20T15:56:01Z</time>
      </trkpt>
      <trkpt lat="50.53948" lon="6.19808">
        <ele>504</ele>
        <time>2025-04-20T15:56:17Z</time>
      </trkpt>
      <trkpt lat="50.53843" lon="6.19802">
        <ele>514</ele>
        <time>2025-04-20T15:56:41Z</time>
      </trkpt>
      <trkpt lat="50.53706" lon="6.19823">
        <ele>512</ele>
        <time>2025-04-20T15:57:13Z</time>
      </trkpt>
      <trkpt lat="50.53595" lon="6.19832">
        <ele>514</ele>
        <time>2025-04-20T15:57:39Z</time>
      </trkpt>
      <trkpt lat="50.53504" lon="6.19811">
        <ele>517</ele>
        <time>2025-04-20T15:58:01Z</time>
      </trkpt>
      <trkpt lat="50.53313" lon="6.19696">
        <ele>509</ele>
        <time>2025-04-20T15:58:48Z</time>
      </trkpt>
      <trkpt lat="50.53229" lon="6.19659">
        <ele>509</ele>
        <time>2025-04-20T15:59:09Z</time>
      </trkpt>
      <trkpt lat="50.5312" lon="6.19654">
        <ele>515</ele>
        <time>2025-04-20T15:59:34Z</time>
      </trkpt>
      <trkpt lat="50.5299" lon="6.19698">
        <ele>522</ele>
        <time>2025-04-20T16:00:05Z</time>
      </trkpt>
      <trkpt lat="50.52889" lon="6.19757">
        <ele>523</ele>
        <time>2025-04-20T16:00:31Z</time>
      </trkpt>
      <trkpt lat="50.52762" lon="6.19873">
        <ele>523</ele>
        <time>2025-04-20T16:01:05Z</time>
      </trkpt>
      <trkpt lat="50.52731" lon="6.19932">
        <ele>517</ele>
        <time>2025-04-20T16:01:16Z</time>
      </trkpt>
      <trkpt lat="50.52686" lon="6.20049">
        <ele>510</ele>
        <time>2025-04-20T16:01:37Z</time>
      </trkpt>
      <trkpt lat="50.52627" lon="6.20302">
        <ele>505</ele>
        <time>2025-04-20T16:02:17Z</time>
      </trkpt>
      <trkpt lat="50.52572" lon="6.20413">
        <ele>509</ele>
        <time>2025-04-20T16:02:37Z</time>
      </trkpt>
      <trkpt lat="50.52393" lon="6.20619">
        <ele>509</ele>
        <time>2025-04-20T16:03:29Z</time>
      </trkpt>
      <trkpt lat="50.52336" lon="6.20666">
        <ele>510</ele>
        <time>2025-04-20T16:03:44Z</time>
      </trkpt>
      <trkpt lat="50.52235" lon="6.20695">
        <ele>512</ele>
        <time>2025-04-20T16:04:08Z</time>
      </trkpt>
      <trkpt lat="50.5212" lon="6.20657">
        <ele>509</ele>
        <time>2025-04-20T16:04:36Z</time>
      </trkpt>
      <trkpt lat="50.51721" lon="6.20358">
        <ele>512</ele>
        <time>2025-04-20T16:06:19Z</time>
      </trkpt>
      <trkpt lat="50.51611" lon="6.2025">
        <ele>514</ele>
        <time>2025-04-20T16:06:49Z</time>
      </trkpt>
      <trkpt lat="50.51517" lon="6.20134">
        <ele>517</ele>
        <time>2025-04-20T16:07:17Z</time>
      </trkpt>
      <trkpt lat="50.51345" lon="6.19852">
        <ele>516</ele>
        <time>2025-04-20T16:08:15Z</time>
      </trkpt>
      <trkpt lat="50.5125" lon="6.19762">
        <ele>515</ele>
        <time>2025-04-20T16:08:41Z</time>
      </trkpt>
      <trkpt lat="50.51237" lon="6.19765">
        <ele>514</ele>
        <time>2025-04-20T16:08:44Z</time>
      </trkpt>
      <trkpt lat="50.51151" lon="6.19697">
        <ele>521</ele>
        <time>2025-04-20T16:09:07Z</time>
      </trkpt>
      <trkpt lat="50.5103" lon="6.19569">
        <ele>526</ele>
        <time>2025-04-20T16:09:41Z</time>
      </trkpt>
      <trkpt lat="50.5098" lon="6.19524">
        <ele>530</ele>
        <time>2025-04-20T16:09:54Z</time>
      </trkpt>
      <trkpt lat="50.50884" lon="6.19479">
        <ele>529</ele>
        <time>2025-04-20T16:10:17Z</time>
      </trkpt>
      <trkpt lat="50.50813" lon="6.19438">
        <ele>531</ele>
        <time>2025-04-20T16:10:35Z</time>
      </trkpt>
      <trkpt lat="50.50752" lon="6.1939">
        <ele>532</ele>
        <time>2025-04-20T16:10:51Z</time>
      </trkpt>
      <trkpt lat="50.5066" lon="6.19297">
        <ele>532</ele>
        <time>2025-04-20T16:11:17Z</time>
      </trkpt>
      <trkpt lat="50.50564" lon="6.19186">
        <ele>530</ele>
        <time>2025-04-20T16:11:44Z</time>
      </trkpt>
      <trkpt lat="50.50522" lon="6.19122">
        <ele>529</ele>
        <time>2025-04-20T16:11:58Z</time>
      </trkpt>
      <trkpt lat="50.50468" lon="6.19015">
        <ele>531</ele>
        <time>2025-04-20T16:12:18Z</time>
      </trkpt>
      <trkpt lat="50.50433" lon="6.18918">
        <ele>524</ele>
        <time>2025-04-20T16:12:35Z</time>
      </trkpt>
      <trkpt lat="50.50405" lon="6.18816">
        <ele>523</ele>
        <time>2025-04-20T16:12:51Z</time>
      </trkpt>
      <trkpt lat="50.50353" lon="6.18593">
        <ele>528</ele>
        <time>2025-04-20T16:13:27Z</time>
      </trkpt>
      <trkpt lat="50.50321" lon="6.18469">
        <ele>532</ele>
        <time>2025-04-20T16:13:47Z</time>
      </trkpt>
      <trkpt lat="50.50298" lon="6.18404">
        <ele>534</ele>
        <time>2025-04-20T16:13:58Z</time>
      </trkpt>
      <trkpt lat="50.50198" lon="6.18206">
        <ele>535</ele>
        <time>2025-04-20T16:14:35Z</time>
      </trkpt>
      <trkpt lat="50.50165" lon="6.18107">
        <ele>533</ele>
        <time>2025-04-20T16:14:52Z</time>
      </trkpt>
      <trkpt lat="50.501" lon="6.17843">
        <ele>528</ele>
        <time>2025-04-20T16:15:34Z</time>
      </trkpt>
      <trkpt lat="50.50045" lon="6.17723">
        <ele>534</ele>
        <time>2025-04-20T16:15:56Z</time>
      </trkpt>
      <trkpt lat="50.5001" lon="6.17676">
        <ele>534</ele>
        <time>2025-04-20T16:16:07Z</time>
      </trkpt>
      <trkpt lat="50.49936" lon="6.1759">
        <ele>536</ele>
        <time>2025-04-20T16:16:28Z</time>
      </trkpt>
      <trkpt lat="50.4989" lon="6.17545">
        <ele>538</ele>
        <time>2025-04-20T16:16:41Z</time>
      </trkpt>
      <trkpt lat="50.49779" lon="6.17473">
        <ele>537</ele>
        <time>2025-04-20T16:17:09Z</time>
      </trkpt>
      <trkpt lat="50.49737" lon="6.17439">
        <ele>537</ele>
        <time>2025-04-20T16:17:20Z</time>
      </trkpt>
      <trkpt lat="50.49668" lon="6.17369">
        <ele>534</ele>
        <time>2025-04-20T16:17:39Z</time>
      </trkpt>
      <trkpt lat="50.49551" lon="6.17155">
        <ele>538</ele>
        <time>2025-04-20T16:18:21Z</time>
      </trkpt>
      <trkpt lat="50.49475" lon="6.17072">
        <ele>537</ele>
        <time>2025-04-20T16:18:42Z</time>
      </trkpt>
      <trkpt lat="50.49394" lon="6.17023">
        <ele>538</ele>
        <time>2025-04-20T16:19:03Z</time>
      </trkpt>
      <trkpt lat="50.49316" lon="6.17028">
        <ele>532</ele>
        <time>2025-04-20T16:19:21Z</time>
      </trkpt>
      <trkpt lat="50.49189" lon="6.17044">
        <ele>532</ele>
        <time>2025-04-20T16:19:51Z</time>
      </trkpt>
      <trkpt lat="50.49185" lon="6.17029">
        <ele>533</ele>
        <time>2025-04-20T16:19:53Z</time>
      </trkpt>
      <trkpt lat="50.49135" lon="6.17032">
        <ele>533</ele>
        <time>2025-04-20T16:20:05Z</time>
      </trkpt>
      <trkpt lat="50.49123" lon="6.16912">
        <ele>538</ele>
        <time>2025-04-20T16:20:23Z</time>
      </trkpt>
      <trkpt lat="50.48778" lon="6.1574">
        <ele>548</ele>
        <time>2025-04-20T16:23:35Z</time>
      </trkpt>
      <trkpt lat="50.4852" lon="6.15924">
        <ele>539</ele>
        <time>2025-04-20T16:24:41Z</time>
      </trkpt>
      <trkpt lat="50.48563" lon="6.16012">
        <ele>539</ele>
        <time>2025-04-20T16:24:57Z</time>
      </trkpt>
      <trkpt lat="50.48557" lon="6.16024">
        <ele>539</ele>
        <time>2025-04-20T16:25:00Z</time>
      </trkpt>
      <trkpt lat="50.48505" lon="6.15935">
        <ele>538</ele>
        <time>2025-04-20T16:25:18Z</time>
      </trkpt>
      <trkpt lat="50.48364" lon="6.15781">
        <ele>542</ele>
        <time>2025-04-20T16:25:58Z</time>
      </trkpt>
      <trkpt lat="50.48234" lon="6.15625">
        <ele>547</ele>
        <time>2025-04-20T16:26:36Z</time>
      </trkpt>
      <trkpt lat="50.48055" lon="6.15355">
        <ele>549</ele>
        <time>2025-04-20T16:27:34Z</time>
      </trkpt>
      <trkpt lat="50.4778" lon="6.14787">
        <ele>558</ele>
        <time>2025-04-20T16:29:20Z</time>
      </trkpt>
      <trkpt lat="50.47724" lon="6.1471">
        <ele>560</ele>
        <time>2025-04-20T16:29:37Z</time>
      </trkpt>
      <trkpt lat="50.47673" lon="6.14652">
        <ele>561</ele>
        <time>2025-04-20T16:29:52Z</time>
      </trkpt>
      <trkpt lat="50.47676" lon="6.14641">
        <ele>562</ele>
        <time>2025-04-20T16:29:54Z</time>
      </trkpt>
      <trkpt lat="50.47656" lon="6.14618">
        <ele>562</ele>
        <time>2025-04-20T16:30:00Z</time>
      </trkpt>
      <trkpt lat="50.47455" lon="6.14465">
        <ele>564</ele>
        <time>2025-04-20T16:30:52Z</time>
      </trkpt>
      <trkpt lat="50.47427" lon="6.14457">
        <ele>564</ele>
        <time>2025-04-20T16:30:58Z</time>
      </trkpt>
      <trkpt lat="50.47357" lon="6.14408">
        <ele>563</ele>
        <time>2025-04-20T16:31:16Z</time>
      </trkpt>
      <trkpt lat="50.47337" lon="6.14399">
        <ele>562</ele>
        <time>2025-04-20T16:31:21Z</time>
      </trkpt>
      <trkpt lat="50.47425" lon="6.14147">
        <ele>563</ele>
        <time>2025-04-20T16:32:04Z</time>
      </trkpt>
      <trkpt lat="50.4743" lon="6.14084">
        <ele>562</ele>
        <time>2025-04-20T16:32:13Z</time>
      </trkpt>
      <trkpt lat="50.47409" lon="6.13935">
        <ele>566</ele>
        <time>2025-04-20T16:32:36Z</time>
      </trkpt>
      <trkpt lat="50.47408" lon="6.13878">
        <ele>567</ele>
        <time>2025-04-20T16:32:44Z</time>
      </trkpt>
      <trkpt lat="50.47453" lon="6.13585">
        <ele>573</ele>
        <time>2025-04-20T16:33:29Z</time>
      </trkpt>
      <trkpt lat="50.47509" lon="6.1328">
        <ele>574</ele>
        <time>2025-04-20T16:34:16Z</time>
      </trkpt>
      <trkpt lat="50.47558" lon="6.13115">
        <ele>574</ele>
        <time>2025-04-20T16:34:43Z</time>
      </trkpt>
      <trkpt lat="50.47591" lon="6.13042">
        <ele>575</ele>
        <time>2025-04-20T16:34:57Z</time>
      </trkpt>
      <trkpt lat="50.47596" lon="6.12942">
        <ele>574</ele>
        <time>2025-04-20T16:35:12Z</time>
      </trkpt>
      <trkpt lat="50.47578" lon="6.12763">
        <ele>574</ele>
        <time>2025-04-20T16:35:39Z</time>
      </trkpt>
      <trkpt lat="50.47496" lon="6.12367">
        <ele>577</ele>
        <time>2025-04-20T16:36:40Z</time>
      </trkpt>
      <trkpt lat="50.47475" lon="6.12277">
        <ele>578</ele>
        <time>2025-04-20T16:36:55Z</time>
      </trkpt>
      <trkpt lat="50.47461" lon="6.12117">
        <ele>579</ele>
        <time>2025-04-20T16:37:19Z</time>
      </trkpt>
      <trkpt lat="50.47432" lon="6.11953">
        <ele>582</ele>
        <time>2025-04-20T16:37:44Z</time>
      </trkpt>
      <trkpt lat="50.47423" lon="6.1187">
        <ele>584</ele>
        <time>2025-04-20T16:37:57Z</time>
      </trkpt>
      <trkpt lat="50.47463" lon="6.11651">
        <ele>589</ele>
        <time>2025-04-20T16:38:30Z</time>
      </trkpt>
      <trkpt lat="50.47458" lon="6.11562">
        <ele>591</ele>
        <time>2025-04-20T16:38:44Z</time>
      </trkpt>
      <trkpt lat="50.47634" lon="6.11398">
        <ele>594</ele>
        <time>2025-04-20T16:39:31Z</time>
      </trkpt>
      <trkpt lat="50.47537" lon="6.11269">
        <ele>597</ele>
        <time>2025-04-20T16:40:01Z</time>
      </trkpt>
      <trkpt lat="50.47433" lon="6.11166">
        <ele>601</ele>
        <time>2025-04-20T16:40:30Z</time>
      </trkpt>
      <trkpt lat="50.4749" lon="6.11092">
        <ele>601</ele>
        <time>2025-04-20T16:40:47Z</time>
      </trkpt>
      <trkpt lat="50.47482" lon="6.11042">
        <ele>603</ele>
        <time>2025-04-20T16:40:55Z</time>
      </trkpt>
    </trkseg>
  </trk>
</gpx>